Silver Lake, Michigan
Current Conditions -  °F | °C
As of 10:55 PM on Saturday 22 Nov 2014 (Local Time) from KLDM Reporting Station
Haze Haze  
Wind Chill: 46°   Ceiling: 1400
Heat Index: 46°   Visibility: 4mi
Dew Point: 45°   Wind: 3mph
Humidity: 95%   Direction: 190°S
Pressure: 29.82"   Gusts: NA
Location:  43.6851°N, 86.4584°W
Report Text: KLDM 230355Z AUTO 19003KT 4SM BR SCT008 OVC014 08/07 A2982 RMK AO2 T00780070
Loading
Personal Weather Stations






























Interactive Weather Map New forecast layout! Learn more

10-Day Weather Forecast

Advertisements
Track Severe Weather on mobile